BFD29T EDDC-EDLP
Flight info
| Callsign | BFD29T |
|---|---|
| Flight time | N/A |
| Altitude | 24000 |
| Route | BEBEX7E BEBEX Q230 WRB WRB6H |
| Aircraft | F2TH/M-SBDE3FGHRWXY/S |
Departure
| Time | 2026-04-30 19:56 |
|---|---|
| Airport | Dresden Airport (EDDC) |
Arrival
| Time | N/A |
|---|---|
| Airport | Paderborn Lippstadt Airport (EDLP) |
| Time | Latitude | Longitude | Altitude | Speed | Heading |
|---|---|---|---|---|---|
| 2026-04-30 19:41 | 51.13075 | 13.76882 | 742 ft | 0 kts | 131° |
| 2026-04-30 19:51 | 51.13070 | 13.76891 | 740 ft | 4 kts | 131° |
| 2026-04-30 19:52 | 51.13028 | 13.76907 | 743 ft | 10 kts | 210° |
| 2026-04-30 19:52 | 51.12954 | 13.76812 | 744 ft | 18 kts | 220° |
| 2026-04-30 19:52 | 51.12848 | 13.76666 | 747 ft | 14 kts | 223° |
| 2026-04-30 19:52 | 51.12794 | 13.76589 | 747 ft | 14 kts | 217° |
| 2026-04-30 19:53 | 51.12781 | 13.76476 | 747 ft | 13 kts | 307° |
| 2026-04-30 19:53 | 51.12763 | 13.76354 | 747 ft | 13 kts | 221° |
| 2026-04-30 19:53 | 51.12687 | 13.76253 | 749 ft | 14 kts | 221° |
| 2026-04-30 19:53 | 51.12612 | 13.76148 | 752 ft | 15 kts | 221° |
| 2026-04-30 19:54 | 51.12530 | 13.76031 | 756 ft | 16 kts | 221° |
| 2026-04-30 19:54 | 51.12441 | 13.75923 | 759 ft | 17 kts | 223° |
| 2026-04-30 19:54 | 51.12371 | 13.75789 | 761 ft | 10 kts | 279° |
| 2026-04-30 19:54 | 51.12376 | 13.75734 | 761 ft | 0 kts | 279° |
| 2026-04-30 19:55 | 51.12379 | 13.75715 | 761 ft | 3 kts | 285° |
| 2026-04-30 19:55 | 51.12379 | 13.75714 | 761 ft | 0 kts | 285° |
| 2026-04-30 19:55 | 51.12383 | 13.75694 | 761 ft | 3 kts | 285° |
| 2026-04-30 19:55 | 51.12405 | 13.75618 | 762 ft | 12 kts | 298° |
| 2026-04-30 19:56 | 51.12482 | 13.75507 | 765 ft | 19 kts | 2° |
| 2026-04-30 19:56 | 51.12743 | 13.75846 | 754 ft | 104 kts | 41° |
| 2026-04-30 19:56 | 51.13492 | 13.76696 | 1152 ft | 138 kts | 22° |
| 2026-04-30 19:56 | 51.14233 | 13.77678 | 1831 ft | 149 kts | 62° |
| 2026-04-30 19:57 | 51.14827 | 13.79036 | 2639 ft | 153 kts | 43° |
| 2026-04-30 19:57 | 51.15677 | 13.80118 | 3492 ft | 161 kts | 38° |
| 2026-04-30 19:57 | 51.16567 | 13.81280 | 4316 ft | 170 kts | 40° |
| 2026-04-30 19:57 | 51.17494 | 13.82531 | 5131 ft | 181 kts | 42° |
| 2026-04-30 19:58 | 51.18477 | 13.83868 | 5928 ft | 191 kts | 42° |
| 2026-04-30 19:58 | 51.19717 | 13.84816 | 6623 ft | 212 kts | 13° |
| 2026-04-30 19:58 | 51.21267 | 13.84716 | 7379 ft | 234 kts | 357° |
| 2026-04-30 19:58 | 51.22960 | 13.84367 | 8188 ft | 256 kts | 356° |
| 2026-04-30 19:59 | 51.24777 | 13.84025 | 9002 ft | 275 kts | 357° |
| 2026-04-30 19:59 | 51.26746 | 13.83693 | 9867 ft | 291 kts | 358° |
| 2026-04-30 19:59 | 51.30575 | 13.81002 | 11358 ft | 327 kts | 320° |
| 2026-04-30 20:00 | 51.31849 | 13.77891 | 12089 ft | 346 kts | 296° |
| 2026-04-30 20:00 | 51.32344 | 13.74057 | 12860 ft | 357 kts | 280° |
| 2026-04-30 20:00 | 51.32571 | 13.70068 | 13684 ft | 364 kts | 278° |
| 2026-04-30 20:00 | 51.32766 | 13.66048 | 14475 ft | 368 kts | 278° |
| 2026-04-30 20:01 | 51.33264 | 13.57789 | 15951 ft | 377 kts | 279° |
| 2026-04-30 20:01 | 51.33507 | 13.53589 | 16417 ft | 392 kts | 279° |
| 2026-04-30 20:01 | 51.33744 | 13.49104 | 16404 ft | 417 kts | 278° |
| 2026-04-30 20:02 | 51.34249 | 13.39492 | 17128 ft | 438 kts | 279° |
| 2026-04-30 20:02 | 51.34642 | 13.34654 | 17910 ft | 437 kts | 283° |
| 2026-04-30 20:03 | 51.35556 | 13.25012 | 19427 ft | 441 kts | 282° |
| 2026-04-30 20:03 | 51.35891 | 13.20160 | 20144 ft | 444 kts | 281° |
| 2026-04-30 20:03 | 51.36262 | 13.15237 | 20884 ft | 446 kts | 282° |
| 2026-04-30 20:03 | 51.36689 | 13.10317 | 21640 ft | 447 kts | 283° |
| 2026-04-30 20:04 | 51.37104 | 13.05365 | 22424 ft | 449 kts | 282° |
| 2026-04-30 20:04 | 51.37483 | 13.00382 | 23198 ft | 451 kts | 282° |
| 2026-04-30 20:04 | 51.37862 | 12.95384 | 24012 ft | 451 kts | 282° |
| 2026-04-30 20:05 | 51.38670 | 12.85289 | 24423 ft | 468 kts | 282° |
| 2026-04-30 20:05 | 51.39057 | 12.80119 | 24423 ft | 479 kts | 281° |
| 2026-04-30 20:05 | 51.39857 | 12.69283 | 24424 ft | 497 kts | 281° |
| 2026-04-30 20:06 | 51.40272 | 12.63735 | 24430 ft | 505 kts | 281° |
| 2026-04-30 20:06 | 51.40693 | 12.58112 | 24435 ft | 512 kts | 281° |
| 2026-04-30 20:06 | 51.41119 | 12.52428 | 24418 ft | 517 kts | 281° |
| 2026-04-30 20:06 | 51.41038 | 12.46747 | 23465 ft | 520 kts | 263° |
| 2026-04-30 20:07 | 51.40493 | 12.41669 | 21460 ft | 418 kts | 263° |
| 2026-04-30 20:07 | 51.40193 | 12.37111 | 20838 ft | 411 kts | 269° |